LEGE/GRO METAR and TAF weather

Enter ICAO airport designator
Station Type Date Time Source
LEGE METAR 2022/12/08 12:30 UTC NOAA

LEGE 081230Z 18004KT 150V210 6000 SCT010 BKN050 13/11 Q1006


Station Type Date Time Source
LEGE Decoded METAR 2022/12/08 12:30 UTC NOAA

Gerona / Costa Brava, Spain (LEGE) 41-54N 002-46E 129M
Dec 08, 2022 - 07:30 AM EST / 2022.12.08 1230 UTC
Wind: from the S (180 degrees) at 5 MPH (4 KT) (direction variable):0
Visibility: 3 mile(s):0
Sky conditions: mostly cloudy
Temperature: 55 F (13 C)
Dew Point: 51 F (11 C)
Relative Humidity: 87%
Pressure (altimeter): 29.71 in. Hg (1006 hPa)
ob: LEGE 081230Z 18004KT 150V210 6000 SCT010 BKN050 13/11 Q1006
cycle: 12

Station Type Date Time Source
LEGE TAF 2022/12/08 12:27 UTC NOAA

TAF LEGE 081100Z 0812/0912 18008KT 9999 FEW010 TX16/0813Z TN07/0906Z PROB40
TEMPO 0814/0820 3000 SHRA FEW015TCU BKN018 PROB40
TEMPO 0818/0908 4000 BR BKN004

Example: see airport list